sensor_id;sensor_type;location;lat;lon;timestamp;P1;durP1;ratioP1;P2;durP2;ratioP2
47912;SDS011;33676;51.006;17.180;2023-06-10T00:01:52;15.00;;;13.80;;
47912;SDS011;33676;51.006;17.180;2023-06-10T00:04:25;16.30;;;14.90;;
47912;SDS011;33676;51.006;17.180;2023-06-10T00:06:56;17.30;;;15.80;;
47912;SDS011;33676;51.006;17.180;2023-06-10T00:09:25;19.80;;;18.30;;
47912;SDS011;33676;51.006;17.180;2023-06-10T00:11:55;18.60;;;17.10;;
47912;SDS011;33676;51.006;17.180;2023-06-10T00:14:23;19.90;;;17.90;;
47912;SDS011;33676;51.006;17.180;2023-06-10T00:16:51;20.40;;;18.70;;
47912;SDS011;33676;51.006;17.180;2023-06-10T00:19:20;20.30;;;18.50;;
47912;SDS011;33676;51.006;17.180;2023-06-10T00:21:53;21.90;;;20.00;;
47912;SDS011;33676;51.006;17.180;2023-06-10T00:24:22;24.70;;;22.30;;
47912;SDS011;33676;51.006;17.180;2023-06-10T00:26:50;26.70;;;24.10;;
47912;SDS011;33676;51.006;17.180;2023-06-10T00:29:19;26.30;;;23.90;;
47912;SDS011;33676;51.006;17.180;2023-06-10T00:31:47;26.10;;;23.70;;
47912;SDS011;33676;51.006;17.180;2023-06-10T00:34:16;24.00;;;21.80;;
47912;SDS011;33676;51.006;17.180;2023-06-10T00:36:44;23.00;;;21.00;;
47912;SDS011;33676;51.006;17.180;2023-06-10T00:39:13;22.70;;;20.90;;
47912;SDS011;33676;51.006;17.180;2023-06-10T00:41:41;21.60;;;19.70;;
47912;SDS011;33676;51.006;17.180;2023-06-10T00:44:10;22.50;;;20.40;;
47912;SDS011;33676;51.006;17.180;2023-06-10T00:46:38;22.90;;;20.90;;
47912;SDS011;33676;51.006;17.180;2023-06-10T00:49:07;22.40;;;20.60;;
47912;SDS011;33676;51.006;17.180;2023-06-10T00:51:36;23.40;;;21.40;;
47912;SDS011;33676;51.006;17.180;2023-06-10T00:54:05;23.40;;;21.30;;
47912;SDS011;33676;51.006;17.180;2023-06-10T00:56:35;23.30;;;21.10;;
47912;SDS011;33676;51.006;17.180;2023-06-10T00:59:04;24.20;;;22.00;;
47912;SDS011;33676;51.006;17.180;2023-06-10T01:01:33;23.50;;;21.50;;
47912;SDS011;33676;51.006;17.180;2023-06-10T01:04:02;22.30;;;20.50;;
47912;SDS011;33676;51.006;17.180;2023-06-10T01:06:42;23.20;;;21.30;;
47912;SDS011;33676;51.006;17.180;2023-06-10T01:09:30;22.90;;;20.80;;
47912;SDS011;33676;51.006;17.180;2023-06-10T01:15:09;21.30;;;19.40;;
47912;SDS011;33676;51.006;17.180;2023-06-10T01:18:05;20.60;;;18.80;;
47912;SDS011;33676;51.006;17.180;2023-06-10T01:20:37;21.40;;;19.50;;
47912;SDS011;33676;51.006;17.180;2023-06-10T01:23:12;20.70;;;19.10;;
47912;SDS011;33676;51.006;17.180;2023-06-10T01:25:44;19.30;;;17.60;;
47912;SDS011;33676;51.006;17.180;2023-06-10T01:34:10;21.10;;;19.10;;
47912;SDS011;33676;51.006;17.180;2023-06-10T01:36:42;19.00;;;17.20;;
47912;SDS011;33676;51.006;17.180;2023-06-10T01:39:17;19.70;;;17.70;;
47912;SDS011;33676;51.006;17.180;2023-06-10T01:41:49;20.50;;;18.70;;
47912;SDS011;33676;51.006;17.180;2023-06-10T01:44:22;20.00;;;18.30;;
47912;SDS011;33676;51.006;17.180;2023-06-10T01:46:51;19.80;;;18.20;;
47912;SDS011;33676;51.006;17.180;2023-06-10T01:49:19;19.20;;;17.60;;
47912;SDS011;33676;51.006;17.180;2023-06-10T01:51:50;18.90;;;17.40;;
47912;SDS011;33676;51.006;17.180;2023-06-10T01:54:18;18.70;;;17.20;;
47912;SDS011;33676;51.006;17.180;2023-06-10T01:56:47;17.90;;;16.30;;
47912;SDS011;33676;51.006;17.180;2023-06-10T01:59:15;17.50;;;16.10;;
47912;SDS011;33676;51.006;17.180;2023-06-10T02:01:44;17.90;;;16.40;;
47912;SDS011;33676;51.006;17.180;2023-06-10T02:04:12;17.40;;;16.10;;
47912;SDS011;33676;51.006;17.180;2023-06-10T02:06:40;19.20;;;17.50;;
47912;SDS011;33676;51.006;17.180;2023-06-10T02:09:09;15.80;;;14.60;;
47912;SDS011;33676;51.006;17.180;2023-06-10T02:11:38;18.80;;;16.90;;
47912;SDS011;33676;51.006;17.180;2023-06-10T02:14:07;17.70;;;16.20;;
47912;SDS011;33676;51.006;17.180;2023-06-10T02:16:35;17.80;;;16.20;;
47912;SDS011;33676;51.006;17.180;2023-06-10T02:19:04;18.10;;;16.50;;
47912;SDS011;33676;51.006;17.180;2023-06-10T02:21:34;17.40;;;16.00;;
47912;SDS011;33676;51.006;17.180;2023-06-10T02:24:03;16.70;;;15.50;;
47912;SDS011;33676;51.006;17.180;2023-06-10T02:26:32;18.00;;;16.50;;
47912;SDS011;33676;51.006;17.180;2023-06-10T02:29:01;17.60;;;16.10;;
47912;SDS011;33676;51.006;17.180;2023-06-10T02:31:29;18.00;;;16.50;;
47912;SDS011;33676;51.006;17.180;2023-06-10T02:33:58;18.30;;;16.90;;
47912;SDS011;33676;51.006;17.180;2023-06-10T02:36:26;17.10;;;15.60;;
47912;SDS011;33676;51.006;17.180;2023-06-10T02:38:55;18.20;;;16.70;;
47912;SDS011;33676;51.006;17.180;2023-06-10T02:41:24;17.30;;;15.50;;
47912;SDS011;33676;51.006;17.180;2023-06-10T02:43:53;19.10;;;17.40;;
47912;SDS011;33676;51.006;17.180;2023-06-10T02:46:21;17.90;;;16.30;;
47912;SDS011;33676;51.006;17.180;2023-06-10T02:48:50;16.80;;;15.40;;
47912;SDS011;33676;51.006;17.180;2023-06-10T02:51:20;17.30;;;15.90;;
47912;SDS011;33676;51.006;17.180;2023-06-10T02:53:49;18.80;;;16.90;;
47912;SDS011;33676;51.006;17.180;2023-06-10T02:56:18;18.10;;;16.50;;
47912;SDS011;33676;51.006;17.180;2023-06-10T02:58:47;18.20;;;16.60;;
47912;SDS011;33676;51.006;17.180;2023-06-10T03:01:16;18.90;;;17.30;;
47912;SDS011;33676;51.006;17.180;2023-06-10T03:03:46;17.40;;;16.10;;
47912;SDS011;33676;51.006;17.180;2023-06-10T03:06:15;18.30;;;16.70;;
47912;SDS011;33676;51.006;17.180;2023-06-10T03:08:43;17.90;;;16.40;;
47912;SDS011;33676;51.006;17.180;2023-06-10T03:19:24;17.80;;;16.40;;
47912;SDS011;33676;51.006;17.180;2023-06-10T03:22:08;18.80;;;17.20;;
47912;SDS011;33676;51.006;17.180;2023-06-10T03:24:37;17.90;;;16.40;;
47912;SDS011;33676;51.006;17.180;2023-06-10T03:27:09;16.90;;;15.60;;
47912;SDS011;33676;51.006;17.180;2023-06-10T03:29:39;19.20;;;17.70;;
47912;SDS011;33676;51.006;17.180;2023-06-10T03:32:08;19.90;;;18.10;;
47912;SDS011;33676;51.006;17.180;2023-06-10T03:34:36;18.00;;;16.50;;
47912;SDS011;33676;51.006;17.180;2023-06-10T03:37:05;18.40;;;16.90;;
47912;SDS011;33676;51.006;17.180;2023-06-10T03:39:33;18.80;;;17.10;;
47912;SDS011;33676;51.006;17.180;2023-06-10T03:42:02;19.30;;;17.60;;
47912;SDS011;33676;51.006;17.180;2023-06-10T03:44:31;19.00;;;17.40;;
47912;SDS011;33676;51.006;17.180;2023-06-10T03:46:59;18.80;;;17.20;;
47912;SDS011;33676;51.006;17.180;2023-06-10T03:49:28;19.10;;;17.40;;
47912;SDS011;33676;51.006;17.180;2023-06-10T03:51:57;18.30;;;16.60;;
47912;SDS011;33676;51.006;17.180;2023-06-10T03:54:26;19.70;;;18.00;;
47912;SDS011;33676;51.006;17.180;2023-06-10T03:56:54;17.80;;;16.30;;
47912;SDS011;33676;51.006;17.180;2023-06-10T03:59:23;19.50;;;17.70;;
47912;SDS011;33676;51.006;17.180;2023-06-10T04:01:51;18.80;;;17.10;;
47912;SDS011;33676;51.006;17.180;2023-06-10T04:04:20;18.40;;;17.10;;
47912;SDS011;33676;51.006;17.180;2023-06-10T04:06:48;17.60;;;16.20;;
47912;SDS011;33676;51.006;17.180;2023-06-10T04:09:17;19.00;;;17.40;;
47912;SDS011;33676;51.006;17.180;2023-06-10T04:11:46;18.50;;;16.90;;
47912;SDS011;33676;51.006;17.180;2023-06-10T04:14:16;19.80;;;18.10;;
47912;SDS011;33676;51.006;17.180;2023-06-10T04:16:44;19.00;;;17.50;;
47912;SDS011;33676;51.006;17.180;2023-06-10T04:19:13;18.40;;;16.90;;
47912;SDS011;33676;51.006;17.180;2023-06-10T04:21:42;18.80;;;17.20;;
47912;SDS011;33676;51.006;17.180;2023-06-10T04:24:10;18.90;;;17.40;;
47912;SDS011;33676;51.006;17.180;2023-06-10T04:26:39;19.00;;;17.50;;
47912;SDS011;33676;51.006;17.180;2023-06-10T04:29:07;19.40;;;17.60;;
47912;SDS011;33676;51.006;17.180;2023-06-10T04:31:35;20.10;;;18.50;;
47912;SDS011;33676;51.006;17.180;2023-06-10T04:34:04;20.70;;;18.80;;
47912;SDS011;33676;51.006;17.180;2023-06-10T04:36:33;18.70;;;17.20;;
47912;SDS011;33676;51.006;17.180;2023-06-10T04:39:01;19.00;;;17.40;;
47912;SDS011;33676;51.006;17.180;2023-06-10T04:41:30;19.30;;;17.60;;
47912;SDS011;33676;51.006;17.180;2023-06-10T04:43:58;19.60;;;17.70;;
47912;SDS011;33676;51.006;17.180;2023-06-10T04:46:26;19.70;;;17.90;;
47912;SDS011;33676;51.006;17.180;2023-06-10T04:48:55;21.20;;;19.50;;
47912;SDS011;33676;51.006;17.180;2023-06-10T04:51:23;21.50;;;19.80;;
47912;SDS011;33676;51.006;17.180;2023-06-10T04:53:52;19.60;;;17.90;;
47912;SDS011;33676;51.006;17.180;2023-06-10T04:56:21;20.50;;;18.80;;
47912;SDS011;33676;51.006;17.180;2023-06-10T04:58:50;20.40;;;18.50;;
47912;SDS011;33676;51.006;17.180;2023-06-10T05:01:18;21.40;;;19.50;;
47912;SDS011;33676;51.006;17.180;2023-06-10T05:03:47;20.10;;;18.30;;
47912;SDS011;33676;51.006;17.180;2023-06-10T05:06:15;19.50;;;17.90;;
47912;SDS011;33676;51.006;17.180;2023-06-10T05:08:44;21.20;;;19.50;;
47912;SDS011;33676;51.006;17.180;2023-06-10T05:11:12;19.90;;;18.20;;
47912;SDS011;33676;51.006;17.180;2023-06-10T05:13:41;21.40;;;19.60;;
47912;SDS011;33676;51.006;17.180;2023-06-10T05:16:12;21.20;;;19.40;;
47912;SDS011;33676;51.006;17.180;2023-06-10T05:18:40;19.90;;;18.10;;
47912;SDS011;33676;51.006;17.180;2023-06-10T05:21:09;20.50;;;18.80;;
47912;SDS011;33676;51.006;17.180;2023-06-10T05:23:38;18.80;;;17.30;;
47912;SDS011;33676;51.006;17.180;2023-06-10T05:26:07;19.50;;;17.80;;
47912;SDS011;33676;51.006;17.180;2023-06-10T05:28:35;19.00;;;17.20;;
47912;SDS011;33676;51.006;17.180;2023-06-10T05:31:04;21.30;;;19.50;;
47912;SDS011;33676;51.006;17.180;2023-06-10T05:33:33;21.50;;;19.30;;
47912;SDS011;33676;51.006;17.180;2023-06-10T05:36:01;21.60;;;19.80;;
47912;SDS011;33676;51.006;17.180;2023-06-10T05:38:30;19.10;;;17.50;;
47912;SDS011;33676;51.006;17.180;2023-06-10T05:40:58;21.00;;;19.30;;
47912;SDS011;33676;51.006;17.180;2023-06-10T05:43:27;20.50;;;18.60;;
47912;SDS011;33676;51.006;17.180;2023-06-10T05:45:55;21.80;;;20.00;;
47912;SDS011;33676;51.006;17.180;2023-06-10T05:48:24;20.70;;;19.00;;
47912;SDS011;33676;51.006;17.180;2023-06-10T05:50:52;20.20;;;18.50;;
47912;SDS011;33676;51.006;17.180;2023-06-10T05:53:21;20.30;;;18.60;;
47912;SDS011;33676;51.006;17.180;2023-06-10T05:55:50;22.10;;;20.00;;
47912;SDS011;33676;51.006;17.180;2023-06-10T05:58:21;19.40;;;17.80;;
47912;SDS011;33676;51.006;17.180;2023-06-10T06:00:50;20.00;;;18.40;;
47912;SDS011;33676;51.006;17.180;2023-06-10T06:03:18;20.40;;;18.80;;
47912;SDS011;33676;51.006;17.180;2023-06-10T06:05:47;20.00;;;18.50;;
47912;SDS011;33676;51.006;17.180;2023-06-10T06:08:16;20.30;;;18.50;;
47912;SDS011;33676;51.006;17.180;2023-06-10T06:10:46;19.60;;;17.90;;
47912;SDS011;33676;51.006;17.180;2023-06-10T06:13:18;19.30;;;17.70;;
47912;SDS011;33676;51.006;17.180;2023-06-10T06:15:46;20.80;;;19.00;;
47912;SDS011;33676;51.006;17.180;2023-06-10T06:18:15;19.10;;;17.60;;
47912;SDS011;33676;51.006;17.180;2023-06-10T06:20:44;19.70;;;18.10;;
47912;SDS011;33676;51.006;17.180;2023-06-10T06:23:12;18.90;;;17.50;;
47912;SDS011;33676;51.006;17.180;2023-06-10T06:25:41;19.90;;;18.30;;
47912;SDS011;33676;51.006;17.180;2023-06-10T06:28:10;20.10;;;18.50;;
47912;SDS011;33676;51.006;17.180;2023-06-10T06:30:38;18.60;;;17.20;;
47912;SDS011;33676;51.006;17.180;2023-06-10T06:33:07;18.80;;;17.40;;
47912;SDS011;33676;51.006;17.180;2023-06-10T06:35:35;18.80;;;17.30;;
47912;SDS011;33676;51.006;17.180;2023-06-10T06:38:06;19.40;;;17.90;;
47912;SDS011;33676;51.006;17.180;2023-06-10T06:40:34;17.30;;;16.10;;
47912;SDS011;33676;51.006;17.180;2023-06-10T06:43:03;19.80;;;18.10;;
47912;SDS011;33676;51.006;17.180;2023-06-10T06:45:31;17.40;;;15.80;;
47912;SDS011;33676;51.006;17.180;2023-06-10T06:48:02;19.60;;;18.20;;
47912;SDS011;33676;51.006;17.180;2023-06-10T06:50:31;17.80;;;16.40;;
47912;SDS011;33676;51.006;17.180;2023-06-10T06:52:59;19.80;;;18.30;;
47912;SDS011;33676;51.006;17.180;2023-06-10T06:55:28;18.80;;;16.90;;
47912;SDS011;33676;51.006;17.180;2023-06-10T06:57:56;18.60;;;17.00;;
47912;SDS011;33676;51.006;17.180;2023-06-10T07:00:25;19.40;;;17.70;;
47912;SDS011;33676;51.006;17.180;2023-06-10T07:02:53;17.80;;;16.40;;
47912;SDS011;33676;51.006;17.180;2023-06-10T07:05:23;19.50;;;18.10;;
47912;SDS011;33676;51.006;17.180;2023-06-10T07:07:54;17.50;;;16.20;;
47912;SDS011;33676;51.006;17.180;2023-06-10T07:10:24;18.50;;;16.90;;
47912;SDS011;33676;51.006;17.180;2023-06-10T07:12:54;16.60;;;15.20;;
47912;SDS011;33676;51.006;17.180;2023-06-10T07:15:22;18.80;;;17.30;;
47912;SDS011;33676;51.006;17.180;2023-06-10T07:17:50;18.20;;;16.50;;
47912;SDS011;33676;51.006;17.180;2023-06-10T07:20:19;18.00;;;16.40;;
47912;SDS011;33676;51.006;17.180;2023-06-10T07:22:47;16.80;;;15.50;;
47912;SDS011;33676;51.006;17.180;2023-06-10T07:25:16;18.70;;;17.00;;
47912;SDS011;33676;51.006;17.180;2023-06-10T07:27:44;16.10;;;14.90;;
47912;SDS011;33676;51.006;17.180;2023-06-10T07:30:13;16.90;;;14.90;;
47912;SDS011;33676;51.006;17.180;2023-06-10T07:32:41;15.80;;;14.60;;
47912;SDS011;33676;51.006;17.180;2023-06-10T07:35:11;15.00;;;13.80;;
47912;SDS011;33676;51.006;17.180;2023-06-10T07:37:40;14.00;;;13.00;;
47912;SDS011;33676;51.006;17.180;2023-06-10T07:40:09;14.90;;;13.80;;
47912;SDS011;33676;51.006;17.180;2023-06-10T07:42:37;15.30;;;14.20;;
47912;SDS011;33676;51.006;17.180;2023-06-10T07:45:06;15.40;;;14.20;;
47912;SDS011;33676;51.006;17.180;2023-06-10T07:47:36;15.00;;;13.80;;
47912;SDS011;33676;51.006;17.180;2023-06-10T07:50:04;15.00;;;13.90;;
47912;SDS011;33676;51.006;17.180;2023-06-10T07:52:33;14.20;;;13.10;;
47912;SDS011;33676;51.006;17.180;2023-06-10T07:55:02;14.80;;;13.60;;
47912;SDS011;33676;51.006;17.180;2023-06-10T07:57:30;13.60;;;12.60;;
47912;SDS011;33676;51.006;17.180;2023-06-10T08:00:37;14.20;;;13.10;;
47912;SDS011;33676;51.006;17.180;2023-06-10T08:03:05;13.60;;;12.60;;
47912;SDS011;33676;51.006;17.180;2023-06-10T08:05:35;14.40;;;13.30;;
47912;SDS011;33676;51.006;17.180;2023-06-10T08:08:04;14.10;;;13.10;;
47912;SDS011;33676;51.006;17.180;2023-06-10T08:10:33;12.80;;;11.90;;
47912;SDS011;33676;51.006;17.180;2023-06-10T08:13:01;13.30;;;12.20;;
47912;SDS011;33676;51.006;17.180;2023-06-10T08:15:30;14.00;;;12.90;;
47912;SDS011;33676;51.006;17.180;2023-06-10T08:17:58;14.90;;;13.60;;
47912;SDS011;33676;51.006;17.180;2023-06-10T08:20:27;11.70;;;10.80;;
47912;SDS011;33676;51.006;17.180;2023-06-10T08:22:55;11.90;;;11.10;;
47912;SDS011;33676;51.006;17.180;2023-06-10T08:25:24;20.90;;;11.70;;
47912;SDS011;33676;51.006;17.180;2023-06-10T08:27:52;12.50;;;11.30;;
47912;SDS011;33676;51.006;17.180;2023-06-10T08:30:24;10.80;;;10.00;;
47912;SDS011;33676;51.006;17.180;2023-06-10T08:32:53;11.80;;;10.90;;
47912;SDS011;33676;51.006;17.180;2023-06-10T08:35:21;10.80;;;10.00;;
47912;SDS011;33676;51.006;17.180;2023-06-10T08:37:49;11.20;;;10.50;;
47912;SDS011;33676;51.006;17.180;2023-06-10T08:40:18;11.30;;;10.50;;
47912;SDS011;33676;51.006;17.180;2023-06-10T08:43:00;12.30;;;11.20;;
47912;SDS011;33676;51.006;17.180;2023-06-10T08:45:38;11.10;;;10.20;;
47912;SDS011;33676;51.006;17.180;2023-06-10T08:48:10;11.70;;;10.70;;
47912;SDS011;33676;51.006;17.180;2023-06-10T08:50:40;11.40;;;10.50;;
47912;SDS011;33676;51.006;17.180;2023-06-10T08:53:09;11.70;;;10.90;;
47912;SDS011;33676;51.006;17.180;2023-06-10T08:55:49;10.90;;;10.10;;
47912;SDS011;33676;51.006;17.180;2023-06-10T08:58:20;10.80;;;10.10;;
47912;SDS011;33676;51.006;17.180;2023-06-10T09:00:49;16.80;;;10.70;;
47912;SDS011;33676;51.006;17.180;2023-06-10T09:03:19;10.70;;;10.00;;
47912;SDS011;33676;51.006;17.180;2023-06-10T09:05:48;9.90;;;9.20;;
47912;SDS011;33676;51.006;17.180;2023-06-10T09:08:18;11.50;;;10.60;;
47912;SDS011;33676;51.006;17.180;2023-06-10T09:10:46;9.90;;;9.10;;
47912;SDS011;33676;51.006;17.180;2023-06-10T09:13:15;11.00;;;10.10;;
47912;SDS011;33676;51.006;17.180;2023-06-10T09:15:48;10.10;;;9.30;;
47912;SDS011;33676;51.006;17.180;2023-06-10T09:18:17;9.50;;;8.80;;
47912;SDS011;33676;51.006;17.180;2023-06-10T09:20:45;9.80;;;8.80;;
47912;SDS011;33676;51.006;17.180;2023-06-10T09:23:15;9.40;;;8.80;;
47912;SDS011;33676;51.006;17.180;2023-06-10T09:25:44;10.70;;;10.00;;
47912;SDS011;33676;51.006;17.180;2023-06-10T09:28:14;9.00;;;8.30;;
47912;SDS011;33676;51.006;17.180;2023-06-10T09:30:43;8.90;;;8.20;;
47912;SDS011;33676;51.006;17.180;2023-06-10T09:33:13;7.70;;;7.10;;
47912;SDS011;33676;51.006;17.180;2023-06-10T09:35:47;9.50;;;8.80;;
47912;SDS011;33676;51.006;17.180;2023-06-10T09:38:21;9.80;;;8.90;;
47912;SDS011;33676;51.006;17.180;2023-06-10T09:40:51;9.80;;;8.90;;
47912;SDS011;33676;51.006;17.180;2023-06-10T09:43:22;9.20;;;8.40;;
47912;SDS011;33676;51.006;17.180;2023-06-10T09:45:51;9.50;;;8.70;;
47912;SDS011;33676;51.006;17.180;2023-06-10T09:48:22;9.00;;;8.40;;
47912;SDS011;33676;51.006;17.180;2023-06-10T09:50:52;10.00;;;9.20;;
47912;SDS011;33676;51.006;17.180;2023-06-10T09:53:20;10.30;;;9.30;;
47912;SDS011;33676;51.006;17.180;2023-06-10T09:55:49;10.40;;;9.60;;
47912;SDS011;33676;51.006;17.180;2023-06-10T09:58:36;10.40;;;9.70;;
47912;SDS011;33676;51.006;17.180;2023-06-10T10:01:10;11.00;;;10.30;;
47912;SDS011;33676;51.006;17.180;2023-06-10T10:03:46;12.70;;;11.70;;
47912;SDS011;33676;51.006;17.180;2023-06-10T10:06:17;10.60;;;9.70;;
47912;SDS011;33676;51.006;17.180;2023-06-10T10:08:49;11.20;;;10.50;;
47912;SDS011;33676;51.006;17.180;2023-06-10T10:11:22;11.10;;;10.30;;
47912;SDS011;33676;51.006;17.180;2023-06-10T10:13:52;11.30;;;10.50;;
47912;SDS011;33676;51.006;17.180;2023-06-10T10:16:33;11.40;;;10.60;;
47912;SDS011;33676;51.006;17.180;2023-06-10T10:19:18;11.30;;;10.40;;
47912;SDS011;33676;51.006;17.180;2023-06-10T10:21:56;11.20;;;10.30;;
47912;SDS011;33676;51.006;17.180;2023-06-10T10:24:34;10.30;;;9.50;;
47912;SDS011;33676;51.006;17.180;2023-06-10T10:27:28;10.50;;;9.80;;
47912;SDS011;33676;51.006;17.180;2023-06-10T10:30:02;11.50;;;10.60;;
47912;SDS011;33676;51.006;17.180;2023-06-10T10:33:00;10.90;;;10.20;;
47912;SDS011;33676;51.006;17.180;2023-06-10T10:35:37;10.10;;;9.30;;
47912;SDS011;33676;51.006;17.180;2023-06-10T10:38:06;10.40;;;9.60;;
47912;SDS011;33676;51.006;17.180;2023-06-10T10:40:35;9.40;;;8.80;;
47912;SDS011;33676;51.006;17.180;2023-06-10T10:43:05;11.20;;;10.40;;
47912;SDS011;33676;51.006;17.180;2023-06-10T10:45:34;9.10;;;8.50;;
47912;SDS011;33676;51.006;17.180;2023-06-10T10:48:08;9.60;;;8.80;;
47912;SDS011;33676;51.006;17.180;2023-06-10T10:50:40;9.50;;;8.80;;
47912;SDS011;33676;51.006;17.180;2023-06-10T10:53:09;9.50;;;8.90;;
47912;SDS011;33676;51.006;17.180;2023-06-10T10:55:37;8.80;;;8.20;;
47912;SDS011;33676;51.006;17.180;2023-06-10T10:58:07;9.60;;;8.90;;
47912;SDS011;33676;51.006;17.180;2023-06-10T11:00:41;8.80;;;8.00;;
47912;SDS011;33676;51.006;17.180;2023-06-10T11:03:14;8.40;;;7.60;;
47912;SDS011;33676;51.006;17.180;2023-06-10T11:05:48;8.30;;;7.80;;
47912;SDS011;33676;51.006;17.180;2023-06-10T11:11:18;9.30;;;8.40;;
47912;SDS011;33676;51.006;17.180;2023-06-10T11:16:31;8.50;;;8.00;;
47912;SDS011;33676;51.006;17.180;2023-06-10T11:19:10;8.20;;;7.50;;
47912;SDS011;33676;51.006;17.180;2023-06-10T11:22:03;7.90;;;7.30;;
47912;SDS011;33676;51.006;17.180;2023-06-10T11:24:34;8.60;;;8.10;;
47912;SDS011;33676;51.006;17.180;2023-06-10T11:27:38;7.70;;;7.10;;
47912;SDS011;33676;51.006;17.180;2023-06-10T11:30:19;9.20;;;8.40;;
47912;SDS011;33676;51.006;17.180;2023-06-10T11:32:57;9.10;;;8.40;;
47912;SDS011;33676;51.006;17.180;2023-06-10T11:35:29;9.30;;;8.70;;
47912;SDS011;33676;51.006;17.180;2023-06-10T11:37:58;8.90;;;8.40;;
47912;SDS011;33676;51.006;17.180;2023-06-10T11:40:27;9.40;;;8.70;;
47912;SDS011;33676;51.006;17.180;2023-06-10T11:42:58;8.20;;;7.50;;
47912;SDS011;33676;51.006;17.180;2023-06-10T11:45:26;8.80;;;8.30;;
47912;SDS011;33676;51.006;17.180;2023-06-10T11:47:59;8.20;;;7.50;;
47912;SDS011;33676;51.006;17.180;2023-06-10T11:50:32;9.00;;;8.10;;
47912;SDS011;33676;51.006;17.180;2023-06-10T11:53:02;9.60;;;8.90;;
47912;SDS011;33676;51.006;17.180;2023-06-10T11:55:44;9.60;;;8.80;;
47912;SDS011;33676;51.006;17.180;2023-06-10T11:58:21;11.80;;;10.80;;
47912;SDS011;33676;51.006;17.180;2023-06-10T12:00:51;12.70;;;11.70;;
47912;SDS011;33676;51.006;17.180;2023-06-10T12:03:21;13.90;;;12.50;;
47912;SDS011;33676;51.006;17.180;2023-06-10T12:05:56;8.90;;;8.30;;
47912;SDS011;33676;51.006;17.180;2023-06-10T12:08:26;8.60;;;8.00;;
47912;SDS011;33676;51.006;17.180;2023-06-10T12:10:59;11.60;;;10.90;;
47912;SDS011;33676;51.006;17.180;2023-06-10T12:13:28;17.70;;;16.20;;
47912;SDS011;33676;51.006;17.180;2023-06-10T12:16:07;21.40;;;19.90;;
47912;SDS011;33676;51.006;17.180;2023-06-10T12:18:39;12.50;;;11.70;;
47912;SDS011;33676;51.006;17.180;2023-06-10T12:21:23;9.40;;;8.60;;
47912;SDS011;33676;51.006;17.180;2023-06-10T12:24:19;9.60;;;8.80;;
47912;SDS011;33676;51.006;17.180;2023-06-10T12:26:48;8.30;;;7.70;;
47912;SDS011;33676;51.006;17.180;2023-06-10T12:29:22;9.00;;;8.10;;
47912;SDS011;33676;51.006;17.180;2023-06-10T12:32:03;8.60;;;7.70;;
47912;SDS011;33676;51.006;17.180;2023-06-10T12:34:38;8.30;;;7.80;;
47912;SDS011;33676;51.006;17.180;2023-06-10T12:37:12;9.00;;;8.20;;
47912;SDS011;33676;51.006;17.180;2023-06-10T12:39:52;8.00;;;7.50;;
47912;SDS011;33676;51.006;17.180;2023-06-10T12:42:22;8.90;;;8.20;;
47912;SDS011;33676;51.006;17.180;2023-06-10T12:44:54;7.50;;;6.90;;
47912;SDS011;33676;51.006;17.180;2023-06-10T12:47:36;9.40;;;8.50;;
47912;SDS011;33676;51.006;17.180;2023-06-10T12:50:08;8.80;;;8.20;;
47912;SDS011;33676;51.006;17.180;2023-06-10T12:52:37;7.50;;;6.80;;
47912;SDS011;33676;51.006;17.180;2023-06-10T12:55:06;8.40;;;7.10;;
47912;SDS011;33676;51.006;17.180;2023-06-10T12:57:35;7.80;;;7.30;;
47912;SDS011;33676;51.006;17.180;2023-06-10T13:00:04;7.50;;;6.90;;
47912;SDS011;33676;51.006;17.180;2023-06-10T13:02:37;6.40;;;6.00;;
47912;SDS011;33676;51.006;17.180;2023-06-10T13:05:05;6.50;;;6.10;;
47912;SDS011;33676;51.006;17.180;2023-06-10T13:07:35;7.90;;;7.10;;
47912;SDS011;33676;51.006;17.180;2023-06-10T13:10:04;6.30;;;5.80;;
47912;SDS011;33676;51.006;17.180;2023-06-10T13:12:32;5.60;;;5.20;;
47912;SDS011;33676;51.006;17.180;2023-06-10T13:15:15;7.20;;;6.50;;
47912;SDS011;33676;51.006;17.180;2023-06-10T13:17:44;5.40;;;5.00;;
47912;SDS011;33676;51.006;17.180;2023-06-10T13:20:15;6.10;;;5.60;;
47912;SDS011;33676;51.006;17.180;2023-06-10T13:22:46;5.40;;;5.00;;
47912;SDS011;33676;51.006;17.180;2023-06-10T13:25:16;5.00;;;4.70;;
47912;SDS011;33676;51.006;17.180;2023-06-10T13:27:44;9.90;;;4.90;;
47912;SDS011;33676;51.006;17.180;2023-06-10T13:30:13;4.70;;;4.30;;
47912;SDS011;33676;51.006;17.180;2023-06-10T13:32:41;5.40;;;4.90;;
47912;SDS011;33676;51.006;17.180;2023-06-10T13:35:10;5.30;;;4.90;;
47912;SDS011;33676;51.006;17.180;2023-06-10T13:37:39;4.80;;;4.50;;
47912;SDS011;33676;51.006;17.180;2023-06-10T13:40:08;4.40;;;4.10;;
47912;SDS011;33676;51.006;17.180;2023-06-10T13:42:38;5.60;;;5.10;;
47912;SDS011;33676;51.006;17.180;2023-06-10T13:45:06;4.90;;;4.50;;
47912;SDS011;33676;51.006;17.180;2023-06-10T13:47:36;7.90;;;4.70;;
47912;SDS011;33676;51.006;17.180;2023-06-10T13:50:05;13.50;;;4.80;;
47912;SDS011;33676;51.006;17.180;2023-06-10T13:52:35;4.70;;;4.30;;
47912;SDS011;33676;51.006;17.180;2023-06-10T13:55:04;4.90;;;4.60;;
47912;SDS011;33676;51.006;17.180;2023-06-10T13:57:32;4.20;;;3.80;;
47912;SDS011;33676;51.006;17.180;2023-06-10T14:01:46;6.40;;;4.00;;
47912;SDS011;33676;51.006;17.180;2023-06-10T14:04:14;4.00;;;3.70;;
47912;SDS011;33676;51.006;17.180;2023-06-10T14:06:43;4.60;;;4.20;;
47912;SDS011;33676;51.006;17.180;2023-06-10T14:09:13;3.80;;;3.60;;
47912;SDS011;33676;51.006;17.180;2023-06-10T14:11:42;3.50;;;3.40;;
47912;SDS011;33676;51.006;17.180;2023-06-10T14:14:10;5.10;;;4.80;;
47912;SDS011;33676;51.006;17.180;2023-06-10T14:16:39;4.90;;;4.60;;
47912;SDS011;33676;51.006;17.180;2023-06-10T14:19:10;4.60;;;4.30;;
47912;SDS011;33676;51.006;17.180;2023-06-10T14:21:39;13.50;;;4.20;;
47912;SDS011;33676;51.006;17.180;2023-06-10T14:24:07;4.40;;;4.00;;
47912;SDS011;33676;51.006;17.180;2023-06-10T14:26:36;3.90;;;3.10;;
47912;SDS011;33676;51.006;17.180;2023-06-10T14:29:04;4.60;;;3.30;;
47912;SDS011;33676;51.006;17.180;2023-06-10T14:31:33;3.60;;;3.30;;
47912;SDS011;33676;51.006;17.180;2023-06-10T14:34:01;3.90;;;3.60;;
47912;SDS011;33676;51.006;17.180;2023-06-10T14:36:30;4.40;;;4.00;;
47912;SDS011;33676;51.006;17.180;2023-06-10T14:38:58;3.80;;;3.50;;
47912;SDS011;33676;51.006;17.180;2023-06-10T14:41:26;3.90;;;3.60;;
47912;SDS011;33676;51.006;17.180;2023-06-10T14:43:55;3.80;;;3.60;;
47912;SDS011;33676;51.006;17.180;2023-06-10T14:46:23;4.10;;;3.90;;
47912;SDS011;33676;51.006;17.180;2023-06-10T14:48:52;4.50;;;4.10;;
47912;SDS011;33676;51.006;17.180;2023-06-10T14:51:20;4.20;;;3.60;;
47912;SDS011;33676;51.006;17.180;2023-06-10T14:53:49;4.90;;;4.40;;
47912;SDS011;33676;51.006;17.180;2023-06-10T14:56:18;4.00;;;3.70;;
47912;SDS011;33676;51.006;17.180;2023-06-10T14:58:47;4.10;;;3.90;;
47912;SDS011;33676;51.006;17.180;2023-06-10T15:01:15;4.20;;;3.40;;